Time;durP1;ratioP1;P1;durP2;ratioP2;P2;SDS_P1;SDS_P2;PMS_P1;PMS_P2;Temp;Humidity;BMP_temperature;BMP_pressure;BME280_temperature;BME280_humidity;BME280_pressure;Samples;Min_cycle;Max_cycle;Signal;HPM_P1;HPM_P2
2022/06/29 00:00:49;;;;;;;;;1.00;1.00;;;;;23.09;43.79;101169.38;5078741;28;46459;-88
2022/06/29 00:03:14;;;;;;;;;2.00;2.00;;;;;23.09;43.33;101174.81;5077996;28;45406;-88
2022/06/29 00:05:40;;;;;;;;;2.33;1.33;;;;;23.01;44.01;101166.47;5073134;28;45391;-88
2022/06/29 00:08:05;;;;;;;;;4.00;2.00;;;;;22.97;43.32;101157.69;5079746;28;45410;-88
2022/06/29 00:10:31;;;;;;;;;2.33;1.00;;;;;22.99;43.60;101160.28;5078804;28;45473;-88
2022/06/29 00:12:56;;;;;;;;;1.67;1.67;;;;;23.05;44.21;101170.63;5073323;28;45332;-88
2022/06/29 00:15:23;;;;;;;;;2.00;2.00;;;;;23.01;43.87;101170.03;5077485;28;45386;-88
2022/06/29 00:17:48;;;;;;;;;1.00;1.00;;;;;22.94;43.85;101155.22;5074805;28;45537;-88
2022/06/29 00:20:14;;;;;;;;;1.67;1.67;;;;;23.04;44.46;101177.06;5078110;28;46504;-88
2022/06/29 00:22:41;;;;;;;;;0.00;0.00;;;;;22.98;44.34;101164.84;5072928;28;45469;-88
2022/06/29 00:25:08;;;;;;;;;0.67;0.00;;;;;23.04;44.53;101175.22;5073773;28;45639;-88
2022/06/29 00:27:33;;;;;;;;;2.00;2.00;;;;;23.06;44.73;101175.06;5075691;28;47866;-88
2022/06/29 00:29:59;;;;;;;;;1.00;1.00;;;;;22.95;44.36;101163.25;5075637;28;47648;-87
2022/06/29 00:32:24;;;;;;;;;1.33;1.00;;;;;23.02;44.69;101173.63;5072606;28;45549;-88
2022/06/29 00:34:50;;;;;;;;;1.00;1.00;;;;;23.00;44.42;101175.63;5073170;28;45414;-88
2022/06/29 00:37:15;;;;;;;;;2.00;1.00;;;;;22.86;44.81;101155.94;5078500;28;45358;-88
2022/06/29 00:39:40;;;;;;;;;1.00;1.00;;;;;22.97;44.62;101168.56;5075539;28;46189;-88
2022/06/29 00:42:06;;;;;;;;;1.00;1.00;;;;;22.94;44.61;101166.09;5077857;28;45414;-88
2022/06/29 00:44:31;;;;;;;;;1.00;1.00;;;;;22.82;45.19;101151.75;5075512;27;45574;-88
2022/06/29 00:46:59;;;;;;;;;1.67;0.67;;;;;22.87;44.64;101162.22;5079101;28;45383;-88
2022/06/29 00:49:26;;;;;;;;;2.33;1.67;;;;;22.84;45.23;101162.50;5076900;28;46724;-89
2022/06/29 00:52:12;;;;;;;;;0.33;0.33;;;;;22.79;45.52;101159.34;5072388;28;45402;-88
2022/06/29 00:54:46;;;;;;;;;0.67;0.67;;;;;22.76;44.93;101155.03;5066404;28;45634;-88
2022/06/29 00:57:15;;;;;;;;;1.00;1.00;;;;;22.75;45.52;101153.31;5077219;28;45468;-88
2022/06/29 00:59:44;;;;;;;;;0.00;0.00;;;;;22.53;45.59;101132.63;5076446;28;47234;-88
2022/06/29 01:02:10;;;;;;;;;1.00;1.00;;;;;22.62;46.01;101150.81;5072776;28;45429;-87
2022/06/29 01:04:35;;;;;;;;;1.00;1.00;;;;;22.57;45.68;101147.66;5071897;28;45407;-88
2022/06/29 01:07:00;;;;;;;;;1.33;1.33;;;;;22.38;45.49;101114.94;5072458;28;45383;-88
2022/06/29 01:09:26;;;;;;;;;1.00;1.00;;;;;22.57;45.76;101154.91;5075692;28;46417;-88
2022/06/29 01:11:51;;;;;;;;;1.00;1.00;;;;;22.56;46.00;101159.50;5073667;28;46888;-88
2022/06/29 01:14:17;;;;;;;;;1.00;1.00;;;;;22.54;46.14;101154.19;5073776;28;45942;-88
2022/06/29 01:16:42;;;;;;;;;2.33;1.00;;;;;22.40;45.91;101138.25;5072339;28;45457;-88
2022/06/29 01:19:08;;;;;;;;;1.00;1.00;;;;;22.39;46.20;101136.53;5071794;28;46150;-88
2022/06/29 01:21:35;;;;;;;;;1.00;1.00;;;;;22.50;46.01;101155.47;5077223;28;45458;-88
2022/06/29 01:24:01;;;;;;;;;1.00;1.00;;;;;22.49;46.79;101159.19;5077300;28;45514;-88
2022/06/29 01:26:27;;;;;;;;;1.00;1.00;;;;;22.42;46.60;101149.84;5077541;28;45272;-88
2022/06/29 01:28:52;;;;;;;;;1.33;1.33;;;;;22.42;46.83;101159.84;5072255;28;46283;-88
2022/06/29 01:31:18;;;;;;;;;2.00;2.00;;;;;22.31;46.50;101139.94;5071290;28;46521;-88
2022/06/29 01:33:45;;;;;;;;;2.00;2.00;;;;;22.38;46.73;101144.81;5072687;28;45486;-89
2022/06/29 01:36:13;;;;;;;;;3.33;2.00;;;;;22.36;46.74;101152.22;5076750;28;45617;-88
2022/06/29 01:38:39;;;;;;;;;1.00;1.00;;;;;22.26;47.08;101146.75;5071396;28;45700;-88
2022/06/29 01:41:06;;;;;;;;;1.67;1.67;;;;;22.10;47.40;101123.63;5072225;28;45396;-88
2022/06/29 01:43:31;;;;;;;;;2.00;1.00;;;;;22.11;47.05;101133.47;5071224;28;45550;-88
2022/06/29 01:45:57;;;;;;;;;2.00;1.00;;;;;22.17;46.96;101156.50;5071483;28;45477;-89
2022/06/29 01:48:23;;;;;;;;;0.67;0.67;;;;;22.12;47.42;101146.06;5075294;28;46042;-88
2022/06/29 01:50:49;;;;;;;;;4.00;1.00;;;;;22.13;47.56;101153.22;5062150;28;45445;-88
2022/06/29 01:53:14;;;;;;;;;1.67;1.00;;;;;21.95;47.91;101137.63;5071713;28;45503;-88
2022/06/29 01:55:40;;;;;;;;;3.67;2.00;;;;;22.08;47.96;101158.19;5077259;28;45467;-88
2022/06/29 01:58:05;;;;;;;;;2.00;2.00;;;;;22.08;47.76;101154.59;5076763;28;45660;-88
2022/06/29 02:00:31;;;;;;;;;1.00;1.00;;;;;21.97;48.15;101144.66;5076109;28;45459;-88
2022/06/29 02:02:56;;;;;;;;;1.67;1.67;;;;;22.02;47.38;101150.53;5076794;28;45382;-89
2022/06/29 02:05:21;;;;;;;;;2.00;2.00;;;;;21.90;48.05;101129.88;5076711;28;45468;-88
2022/06/29 02:07:46;;;;;;;;;2.67;2.67;;;;;21.80;48.21;101124.38;5077205;28;46046;-88
2022/06/29 02:10:12;;;;;;;;;1.67;1.67;;;;;21.92;48.20;101155.91;5076795;28;45434;-88
2022/06/29 02:12:37;;;;;;;;;2.33;1.00;;;;;21.62;47.77;101105.09;5073202;28;45502;-88
2022/06/29 02:15:03;;;;;;;;;1.33;1.33;;;;;21.81;48.64;101131.53;5074424;28;45526;-88
2022/06/29 02:17:28;;;;;;;;;1.00;1.00;;;;;21.85;48.16;101137.56;5058141;28;46632;-88
2022/06/29 02:19:53;;;;;;;;;1.00;1.00;;;;;21.50;48.67;101093.44;5077412;28;45553;-88
2022/06/29 02:22:19;;;;;;;;;1.33;1.33;;;;;21.66;48.47;101122.84;5071099;28;45407;-88
2022/06/29 02:24:44;;;;;;;;;1.00;1.00;;;;;21.79;48.30;101149.78;5072460;28;45509;-88
2022/06/29 02:27:09;;;;;;;;;2.00;1.00;;;;;21.63;48.28;101131.25;5075261;28;47196;-88
2022/06/29 02:29:35;;;;;;;;;1.00;1.00;;;;;21.62;48.80;101137.66;5070235;28;51354;-88
2022/06/29 02:34:44;;;;;;;;;3.00;1.00;;;;;21.54;49.07;101125.72;5077354;28;45339;-88
2022/06/29 02:37:10;;;;;;;;;1.33;1.33;;;;;21.65;49.18;101145.53;5070535;28;46279;-88
2022/06/29 02:39:36;;;;;;;;;3.00;1.33;;;;;21.49;48.82;101121.56;5057677;28;45954;-88
2022/06/29 02:42:02;;;;;;;;;2.00;2.00;;;;;21.63;48.82;101141.22;5076383;28;45706;-88
2022/06/29 02:44:27;;;;;;;;;4.00;2.00;;;;;21.47;48.85;101122.69;5076348;28;45270;-88
2022/06/29 02:46:52;;;;;;;;;2.00;1.67;;;;;21.60;49.43;101142.34;5076821;27;46969;-88
2022/06/29 02:49:18;;;;;;;;;0.00;0.00;;;;;21.60;49.51;101144.19;5076378;28;45425;-88
2022/06/29 02:51:43;;;;;;;;;5.00;1.33;;;;;21.54;49.29;101134.75;5071798;28;45226;-88
2022/06/29 02:54:08;;;;;;;;;2.00;2.00;;;;;21.42;48.98;101119.47;5075741;28;45423;-88
2022/06/29 02:56:34;;;;;;;;;3.00;1.00;;;;;21.54;49.23;101142.88;5070663;27;46963;-88
2022/06/29 02:58:59;;;;;;;;;1.00;1.00;;;;;21.33;49.42;101103.94;5071500;28;48514;-88
2022/06/29 03:01:25;;;;;;;;;2.00;2.00;;;;;21.44;49.29;101118.34;5070326;28;45515;-88
2022/06/29 03:03:50;;;;;;;;;1.00;1.00;;;;;21.45;49.14;101130.09;5071606;28;45435;-88
2022/06/29 03:06:15;;;;;;;;;1.00;1.00;;;;;21.48;49.39;101135.25;5075365;28;45374;-88
2022/06/29 03:08:41;;;;;;;;;3.00;1.33;;;;;21.46;49.58;101139.94;5070711;28;46465;-88
2022/06/29 03:11:06;;;;;;;;;1.33;1.33;;;;;21.37;49.76;101124.38;5071174;28;45419;-87
2022/06/29 03:13:32;;;;;;;;;1.00;1.00;;;;;21.35;49.76;101118.22;5075761;28;45543;-88
2022/06/29 03:15:57;;;;;;;;;2.00;2.00;;;;;21.26;49.75;101106.31;5075746;28;46263;-88
2022/06/29 03:18:23;;;;;;;;;0.00;0.00;;;;;21.25;49.57;101124.41;5074528;28;45583;-88
2022/06/29 03:20:48;;;;;;;;;2.00;1.00;;;;;21.26;49.84;101134.28;5071773;28;45596;-88
2022/06/29 03:23:13;;;;;;;;;2.33;2.33;;;;;21.24;50.07;101129.97;5076409;28;45514;-87
2022/06/29 03:25:39;;;;;;;;;1.67;1.67;;;;;21.24;50.22;101129.97;5076432;28;45826;-88
2022/06/29 03:28:04;;;;;;;;;0.33;0.33;;;;;21.31;50.27;101138.47;5073561;28;45431;-88
2022/06/29 03:30:30;;;;;;;;;1.67;1.00;;;;;21.05;49.77;101101.69;5079317;28;45324;-88
2022/06/29 03:32:55;;;;;;;;;3.00;3.00;;;;;21.18;49.98;101130.47;5079532;28;45557;-88
2022/06/29 03:35:21;;;;;;;;;2.33;2.00;;;;;21.16;50.06;101118.88;5073397;28;46009;-88
2022/06/29 03:37:46;;;;;;;;;3.00;3.00;;;;;21.20;50.52;101126.66;5074122;28;45475;-88
2022/06/29 03:40:12;;;;;;;;;2.67;1.67;;;;;21.16;50.43;101122.47;5073558;28;45966;-88
2022/06/29 03:42:37;;;;;;;;;1.67;1.67;;;;;21.18;50.11;101123.19;5078949;28;45515;-88
2022/06/29 03:45:03;;;;;;;;;1.67;1.67;;;;;21.04;50.43;101105.34;5078738;28;45485;-88
2022/06/29 03:47:29;;;;;;;;;3.00;2.00;;;;;21.02;50.00;101109.19;5073173;28;45387;-88
2022/06/29 03:49:54;;;;;;;;;3.33;1.00;;;;;21.07;50.15;101126.81;5077046;28;45744;-88
2022/06/29 03:52:19;;;;;;;;;1.00;0.00;;;;;21.07;50.80;101131.34;5078837;28;45549;-89
2022/06/29 03:54:45;;;;;;;;;1.00;1.00;;;;;21.02;50.66;101120.03;5074626;28;45463;-88
2022/06/29 03:57:10;;;;;;;;;1.00;0.00;;;;;20.97;50.33;101120.41;5077295;28;45571;-88
2022/06/29 03:59:36;;;;;;;;;2.67;2.00;;;;;20.83;50.84;101112.53;5073101;28;45465;-87
2022/06/29 04:02:01;;;;;;;;;2.00;2.00;;;;;20.79;50.96;101100.22;5079815;28;45352;-88
2022/06/29 04:04:27;;;;;;;;;1.00;1.00;;;;;20.77;50.72;101103.06;5072901;28;47020;-87
2022/06/29 04:06:55;;;;;;;;;2.67;2.00;;;;;20.77;50.97;101105.78;5073444;28;45442;-88
2022/06/29 04:09:21;;;;;;;;;2.00;2.00;;;;;20.67;51.25;101088.53;5079021;28;45406;-88
2022/06/29 04:11:49;;;;;;;;;1.33;1.33;;;;;20.81;51.01;101119.91;5078747;28;47659;-88
2022/06/29 04:14:22;;;;;;;;;1.00;1.00;;;;;20.69;51.22;101108.22;5073740;28;46124;-88
2022/06/29 04:16:48;;;;;;;;;2.00;2.00;;;;;20.82;51.55;101125.22;5078735;28;45458;-88
2022/06/29 04:19:13;;;;;;;;;1.00;1.00;;;;;20.70;51.82;101098.25;5072911;28;45502;-88
2022/06/29 04:21:39;;;;;;;;;1.67;1.67;;;;;20.71;52.00;101108.13;5075073;28;45446;-87
2022/06/29 04:24:05;;;;;;;;;1.33;1.33;;;;;20.74;51.51;101124.13;5076544;28;46775;-88
2022/06/29 04:26:30;;;;;;;;;1.00;1.00;;;;;20.57;52.10;101096.53;5077975;28;45445;-88
2022/06/29 04:28:55;;;;;;;;;3.00;3.00;;;;;20.63;52.52;101106.88;5073822;28;45438;-88
2022/06/29 04:31:21;;;;;;;;;1.00;1.00;;;;;20.68;52.07;101130.03;5077161;28;45513;-88
2022/06/29 04:33:46;;;;;;;;;4.00;2.00;;;;;20.52;52.24;101097.88;5074879;28;46366;-88
2022/06/29 04:36:11;;;;;;;;;2.33;2.33;;;;;20.56;52.07;101118.34;5074516;27;45416;-87
2022/06/29 04:38:37;;;;;;;;;0.33;0.00;;;;;20.15;53.42;101112.47;5077111;28;45409;-87
2022/06/29 04:41:02;;;;;;;;;2.00;2.00;;;;;19.99;54.35;101125.47;5076580;28;47016;-85
2022/06/29 04:43:29;;;;;;;;;2.33;2.33;;;;;19.74;54.59;101105.72;5075511;27;46448;-85
2022/06/29 04:48:39;;;;;;;;;3.00;3.00;;;;;19.64;55.24;101128.13;5076713;28;45466;-86
2022/06/29 04:51:04;;;;;;;;;3.00;3.00;;;;;19.46;55.65;101114.19;5077151;28;45478;-85
2022/06/29 04:53:30;;;;;;;;;2.00;2.00;;;;;19.51;55.74;101130.91;5076509;28;46419;-86
2022/06/29 04:55:55;;;;;;;;;3.00;3.00;;;;;19.45;55.78;101128.66;5077403;28;45445;-85
2022/06/29 04:58:21;;;;;;;;;3.00;3.00;;;;;19.33;56.25;101128.59;5076895;28;45327;-86
2022/06/29 05:00:46;;;;;;;;;4.00;4.00;;;;;19.25;56.42;101104.00;5077431;28;45402;-89
2022/06/29 05:03:11;;;;;;;;;54.67;41.33;;;;;19.17;56.50;101087.47;5076825;28;45329;-85
2022/06/29 05:05:37;;;;;;;;;10.33;6.67;;;;;19.33;56.17;101119.63;5071170;28;45735;-85
2022/06/29 05:08:02;;;;;;;;;2.67;2.67;;;;;19.33;56.32;101127.72;5077446;28;45481;-86
2022/06/29 05:10:28;;;;;;;;;4.33;2.00;;;;;19.24;56.07;101112.19;5071672;28;45368;-85
2022/06/29 05:12:53;;;;;;;;;2.00;2.00;;;;;19.27;56.03;101111.97;5077569;28;45457;-87
2022/06/29 05:15:18;;;;;;;;;3.33;2.00;;;;;19.32;56.50;101128.72;5056913;28;45214;-86
2022/06/29 05:17:45;;;;;;;;;2.00;1.00;;;;;19.13;56.37;101094.94;5071878;28;45974;-87
2022/06/29 05:20:11;;;;;;;;;4.00;2.00;;;;;19.20;55.74;101100.78;5078564;27;45549;-87
2022/06/29 05:22:37;;;;;;;;;2.00;2.00;;;;;19.37;55.53;101118.44;5076284;28;46252;-86
2022/06/29 05:25:03;;;;;;;;;2.33;2.33;;;;;19.23;55.58;101096.97;5075905;28;45810;-85
2022/06/29 05:27:28;;;;;;;;;4.00;2.33;;;;;19.41;55.00;101101.00;5073329;28;45712;-85
2022/06/29 05:29:54;;;;;;;;;0.00;0.00;;;;;19.65;53.75;101117.22;5077025;28;45541;-85
2022/06/29 05:32:19;;;;;;;;;3.00;1.67;;;;;19.81;52.95;101128.63;5076000;28;46992;-86
2022/06/29 05:34:45;;;;;;;;;1.67;1.67;;;;;19.92;52.82;101132.31;5058937;28;45779;-86
2022/06/29 05:37:10;;;;;;;;;1.00;1.00;;;;;20.03;51.95;101132.38;5076282;28;47264;-85
2022/06/29 05:39:35;;;;;;;;;3.67;1.00;;;;;20.10;51.75;101130.91;5076494;28;45356;-85
2022/06/29 05:42:01;;;;;;;;;1.00;1.00;;;;;20.18;51.57;101133.00;5076232;28;45782;-86
2022/06/29 05:44:26;;;;;;;;;0.67;0.00;;;;;20.11;50.55;101107.41;5076141;28;45569;-86
2022/06/29 05:46:52;;;;;;;;;1.00;1.00;;;;;20.31;50.20;101125.66;5071535;28;45505;-86
2022/06/29 05:49:17;;;;;;;;;2.00;1.00;;;;;20.34;49.79;101122.69;5075855;28;45675;-87
2022/06/29 05:51:42;;;;;;;;;0.67;0.67;;;;;20.46;49.53;101129.00;5075612;28;57757;-85
2022/06/29 05:54:08;;;;;;;;;1.67;1.67;;;;;20.38;49.26;101090.84;5075687;28;45553;-86
2022/06/29 05:56:33;;;;;;;;;1.00;1.00;;;;;20.50;48.80;101099.84;5076061;28;45455;-85
2022/06/29 05:58:58;;;;;;;;;1.00;1.00;;;;;20.66;49.19;101120.19;5077149;28;45449;-86
2022/06/29 06:01:24;;;;;;;;;1.00;1.00;;;;;20.77;48.57;101119.31;5075626;28;46975;-85
2022/06/29 06:03:50;;;;;;;;;1.00;1.00;;;;;20.67;48.59;101091.22;5076088;28;45609;-86
2022/06/29 06:06:15;;;;;;;;;1.00;1.00;;;;;20.91;48.04;101130.88;5076113;28;45406;-86
2022/06/29 06:08:40;;;;;;;;;1.00;1.00;;;;;20.78;47.29;101093.09;5076175;28;45484;-86
2022/06/29 06:11:06;;;;;;;;;1.00;1.00;;;;;20.79;47.60;101092.97;5076478;28;45959;-85
2022/06/29 06:13:31;;;;;;;;;1.00;1.00;;;;;21.00;47.11;101106.63;5075597;28;45451;-86
2022/06/29 06:15:56;;;;;;;;;2.00;1.00;;;;;21.10;47.11;101114.84;5075777;28;45534;-85
2022/06/29 06:18:22;;;;;;;;;1.00;1.00;;;;;21.22;46.68;101121.97;5076179;28;45436;-86
2022/06/29 06:20:47;;;;;;;;;1.00;1.00;;;;;21.15;46.78;101095.50;5075666;28;46282;-85
2022/06/29 06:23:13;;;;;;;;;0.00;0.00;;;;;21.37;46.83;101127.09;5075955;28;45438;-86
2022/06/29 06:25:38;;;;;;;;;3.67;1.00;;;;;21.28;45.98;101105.19;5075599;28;45867;-85
2022/06/29 06:28:05;;;;;;;;;2.00;2.00;;;;;21.42;46.34;101124.88;5070533;28;45484;-85
2022/06/29 06:30:31;;;;;;;;;0.33;0.33;;;;;21.50;45.74;101122.41;5075464;28;46393;-86
2022/06/29 06:32:56;;;;;;;;;1.00;1.00;;;;;21.60;45.46;101131.50;5075246;27;45289;-86
2022/06/29 06:35:22;;;;;;;;;2.00;2.00;;;;;21.67;45.88;101127.28;5075790;28;45568;-85
2022/06/29 06:37:48;;;;;;;;;1.67;1.00;;;;;21.73;45.56;101136.75;5076156;28;45394;-86
2022/06/29 06:42:58;;;;;;;;;1.33;1.33;;;;;21.86;45.74;101128.41;5075356;28;45241;-86
2022/06/29 06:45:24;;;;;;;;;2.33;1.00;;;;;21.79;45.74;101110.94;5075465;28;45576;-85
2022/06/29 06:47:49;;;;;;;;;12.33;11.00;;;;;21.99;44.89;101128.25;5075632;28;45649;-86
2022/06/29 06:50:15;;;;;;;;;1.00;1.00;;;;;22.00;44.08;101113.66;5075071;28;45730;-85
2022/06/29 06:52:41;;;;;;;;;1.00;1.00;;;;;21.99;44.57;101101.97;5056731;28;45602;-85
2022/06/29 06:55:07;;;;;;;;;1.33;1.33;;;;;22.16;44.00;101118.63;5074579;27;45493;-85
2022/06/29 06:57:32;;;;;;;;;0.00;0.00;;;;;22.19;44.32;101108.34;5075135;28;45825;-86
2022/06/29 06:59:57;;;;;;;;;1.00;1.00;;;;;22.16;44.36;101099.63;5073716;28;45816;-89
2022/06/29 07:02:23;;;;;;;;;0.00;0.00;;;;;22.12;44.13;101080.91;5055790;28;45853;-88
2022/06/29 07:04:48;;;;;;;;;1.33;1.33;;;;;22.18;43.76;101087.66;5073324;28;45914;-91
2022/06/29 07:07:17;;;;;;;;;1.00;1.00;;;;;22.45;43.46;101125.16;5075494;28;45458;-85
2022/06/29 07:09:42;;;;;;;;;1.00;1.00;;;;;22.22;43.92;101067.41;5072330;27;47033;-80
2022/06/29 07:12:08;;;;;;;;;1.00;1.00;;;;;22.51;43.25;101108.28;5074525;27;45711;-87
2022/06/29 07:14:33;;;;;;;;;0.00;0.00;;;;;22.61;42.62;101112.91;5074378;28;45582;-83
2022/06/29 07:16:59;;;;;;;;;2.00;1.00;;;;;22.47;42.46;101081.53;5070342;28;45439;-84
2022/06/29 07:19:24;;;;;;;;;0.67;0.67;;;;;22.49;42.30;101072.25;5074119;28;46588;-84
2022/06/29 07:21:49;;;;;;;;;0.33;0.33;;;;;22.53;42.26;101072.84;5074708;28;45835;-87
2022/06/29 07:24:15;;;;;;;;;0.00;0.00;;;;;22.83;42.11;101120.00;5075277;28;45536;-85
2022/06/29 07:26:43;;;;;;;;;0.33;0.33;;;;;22.76;41.83;101103.41;5069482;28;45518;-86
2022/06/29 07:29:08;;;;;;;;;2.00;1.00;;;;;22.82;42.41;101101.97;5071617;28;45397;-86
2022/06/29 07:31:34;;;;;;;;;2.33;0.00;;;;;22.95;41.41;101108.03;5075459;28;45454;-87
2022/06/29 07:34:00;;;;;;;;;1.00;1.00;;;;;22.87;41.66;101084.25;5070115;28;45535;-84
2022/06/29 07:36:31;;;;;;;;;1.33;1.00;;;;;22.97;41.70;101090.59;5075945;28;45441;-86
2022/06/29 07:39:05;;;;;;;;;1.00;1.00;;;;;22.57;41.40;101016.38;5074742;28;46510;-85
2022/06/29 07:41:30;;;;;;;;;1.00;0.00;;;;;22.73;41.14;101035.72;5075206;28;45534;-87
2022/06/29 07:43:56;;;;;;;;;2.00;0.67;;;;;23.33;41.06;101110.00;5075301;28;45926;-84
2022/06/29 07:46:21;;;;;;;;;0.00;0.00;;;;;23.12;41.34;101063.03;5071962;28;45473;-85
2022/06/29 07:48:46;;;;;;;;;0.00;0.00;;;;;23.30;41.29;101082.25;5073969;28;47234;-84
2022/06/29 07:51:12;;;;;;;;;0.67;0.67;;;;;23.52;40.95;101121.91;5074032;28;52746;-83
2022/06/29 07:53:37;;;;;;;;;0.00;0.00;;;;;23.56;41.02;101115.19;5073638;28;45387;-85
2022/06/29 07:56:03;;;;;;;;;0.67;0.67;;;;;23.32;40.62;101070.22;5075454;28;46334;-86
2022/06/29 07:58:28;;;;;;;;;0.67;0.67;;;;;23.55;40.82;101103.44;5074127;28;46248;-86
2022/06/29 08:00:54;;;;;;;;;1.67;1.00;;;;;23.68;40.49;101102.31;5074583;28;45710;-87
2022/06/29 08:03:19;;;;;;;;;5.00;2.00;;;;;23.76;40.75;101110.63;5074026;28;45618;-86
2022/06/29 08:05:45;;;;;;;;;0.00;0.00;;;;;23.79;40.80;101105.78;5074926;28;45467;-87
2022/06/29 08:08:11;;;;;;;;;0.00;0.00;;;;;23.84;40.35;101112.66;5075072;28;47337;-85
2022/06/29 08:10:37;;;;;;;;;0.67;0.67;;;;;23.76;40.51;101083.41;5068484;28;45337;-84
2022/06/29 08:13:02;;;;;;;;;2.67;1.00;;;;;23.82;40.55;101077.41;5073055;28;45609;-85
2022/06/29 08:15:28;;;;;;;;;1.00;1.00;;;;;23.96;40.08;101084.25;5077732;28;45478;-88
2022/06/29 08:17:54;;;;;;;;;2.00;0.00;;;;;23.79;39.87;101051.31;5077281;28;47270;-88
2022/06/29 08:20:20;;;;;;;;;1.00;0.67;;;;;24.16;39.81;101099.56;5054302;28;45283;-88
2022/06/29 08:22:46;;;;;;;;;0.67;0.67;;;;;23.98;39.81;101052.28;5070430;28;45474;-86
2022/06/29 08:25:12;;;;;;;;;0.00;0.00;;;;;24.27;40.09;101087.63;5072852;28;45478;-87
2022/06/29 08:27:38;;;;;;;;;0.33;0.33;;;;;24.16;39.92;101050.53;5076457;28;46272;-84
2022/06/29 08:30:07;;;;;;;;;1.00;1.00;;;;;24.53;40.30;101079.66;5074175;27;45564;-85
2022/06/29 08:32:32;;;;;;;;;1.33;1.33;;;;;24.73;38.75;101076.88;5076832;28;45545;-85
2022/06/29 08:35:01;;;;;;;;;1.33;1.33;;;;;25.23;37.95;101081.91;5072014;28;45873;-90
2022/06/29 08:37:30;;;;;;;;;0.67;0.67;;;;;25.37;37.95;101066.88;5076720;28;47232;-86
2022/06/29 08:39:55;;;;;;;;;2.67;2.67;;;;;25.51;37.40;101027.25;5076897;28;45477;-84
2022/06/29 08:42:22;;;;;;;;;2.00;2.00;;;;;25.66;37.23;101042.91;5058110;28;45557;-84
2022/06/29 08:44:49;;;;;;;;;0.00;0.00;;;;;25.81;36.94;101075.09;5076464;28;45710;-84
2022/06/29 08:47:15;;;;;;;;;1.00;1.00;;;;;25.73;36.68;101047.72;5076086;28;45441;-83
2022/06/29 08:49:41;;;;;;;;;0.00;0.00;;;;;25.73;37.10;101042.25;5075110;28;45372;-82
2022/06/29 08:52:09;;;;;;;;;1.00;1.00;;;;;25.94;36.42;101075.56;5076643;28;45367;-81
2022/06/29 08:54:41;;;;;;;;;0.67;0.67;;;;;26.02;36.54;101086.56;5076980;28;45604;-82
2022/06/29 08:57:06;;;;;;;;;0.00;0.00;;;;;26.33;36.33;101078.72;5076413;28;46164;-82
2022/06/29 08:59:35;;;;;;;;;0.50;0.50;;;;;26.55;35.48;101075.63;5076119;28;45391;-84
2022/06/29 09:02:01;;;;;;;;;0.67;0.00;;;;;26.63;34.90;101064.75;5074676;28;45481;-83
2022/06/29 09:04:27;;;;;;;;;0.00;0.00;;;;;26.97;34.42;101067.41;5076943;28;45616;-84
2022/06/29 09:06:54;;;;;;;;;0.00;0.00;;;;;27.47;34.62;101080.22;5076784;28;46587;-83
2022/06/29 09:09:20;;;;;;;;;0.00;0.00;;;;;27.87;33.76;101072.22;5076425;28;45387;-84
2022/06/29 09:11:46;;;;;;;;;17.00;17.00;;;;;27.19;33.13;100904.50;5291532;22;45431;-84
2022/06/29 09:17:20;;;;;;;;;0.00;0.00;;;;;28.67;32.13;101072.25;5044416;28;45773;-84
2022/06/29 09:23:09;;;;;;;;;0.33;0.33;;;;;29.28;30.34;101083.44;5011310;28;45525;-85
2022/06/29 09:25:41;;;;;;;;;1.00;0.00;;;;;29.09;29.90;100987.84;5036660;28;45657;-84
2022/06/29 09:28:25;;;;;;;;;2.33;1.00;;;;;29.82;30.14;101049.56;5051116;28;46973;-84
2022/06/29 09:30:56;;;;;;;;;0.00;0.00;;;;;30.29;28.46;101062.19;5571650;22;45338;-87
2022/06/29 09:33:24;;;;;;;;;0.00;0.00;;;;;30.16;27.40;100993.22;5024116;28;45445;-87
2022/06/29 09:36:07;;;;;;;;;0.33;0.33;;;;;30.74;27.45;101068.50;5049354;28;45532;-87
2022/06/29 09:41:21;;;;;;;;;2.00;0.25;;;;;30.42;27.66;100962.50;5024777;28;45451;-85
2022/06/29 09:44:02;;;;;;;;;0.67;0.67;;;;;31.40;27.11;101062.09;5031916;28;45762;-84
2022/06/29 09:46:34;;;;;;;;;1.67;1.67;;;;;31.41;27.17;101008.75;5034520;28;46057;-89
2022/06/29 09:49:36;;;;;;;;;1.00;1.00;;;;;31.22;26.57;100930.38;5032082;28;46945;-89
2022/06/29 09:52:19;;;;;;;;;0.33;0.33;;;;;32.25;25.57;101058.44;4979269;28;45911;-87
2022/06/29 09:55:18;;;;;;;;;1.00;1.00;;;;;32.54;25.38;101087.72;5020552;28;45509;-86
2022/06/29 09:57:51;;;;;;;;;0.00;0.00;;;;;32.18;25.40;100983.91;5033206;28;45451;-88
2022/06/29 10:03:01;;;;;;;;;1.00;0.00;;;;;32.74;24.26;100954.47;5035154;28;45313;-90
2022/06/29 10:05:54;;;;;;;;;0.00;0.00;;;;;33.57;24.18;101049.00;5047573;28;50602;-93
2022/06/29 10:08:21;;;;;;;;;0.33;0.33;;;;;32.95;24.60;100909.25;5032294;28;45446;-91
2022/06/29 10:10:56;;;;;;;;;0.33;0.00;;;;;33.99;23.79;101060.69;5035634;28;45515;-86
2022/06/29 10:13:59;;;;;;;;;0.00;0.00;;;;;33.95;24.23;101062.22;5026832;28;45681;-91
2022/06/29 10:17:02;;;;;;;;;0.00;0.00;;;;;33.89;23.82;101068.59;5023530;28;45340;-90
2022/06/29 10:20:18;;;;;;;;;0.00;0.00;;;;;33.04;23.84;100909.88;5026662;28;45502;-88
2022/06/29 10:22:43;;;;;;;;;0.67;0.67;;;;;33.63;23.04;100969.91;5032169;28;46262;-93
2022/06/29 10:25:27;;;;;;;;;1.00;1.00;;;;;33.43;23.07;100903.53;5156624;22;45363;-90
2022/06/29 10:28:11;;;;;;;;;0.00;0.00;;;;;34.30;23.62;101044.50;5032667;28;45665;-91
2022/06/29 10:30:48;;;;;;;;;4.67;3.33;;;;;34.03;22.56;100987.28;5028950;28;45476;-85
2022/06/29 10:33:29;;;;;;;;;0.00;0.00;;;;;34.42;23.15;101040.03;5034091;28;45568;-83
2022/06/29 10:36:09;;;;;;;;;0.00;0.00;;;;;34.50;23.17;101045.31;5028412;28;45402;-87
2022/06/29 10:39:03;;;;;;;;;0.00;0.00;;;;;34.59;21.85;101044.00;5036557;28;45441;-87
2022/06/29 10:44:55;;;;;;;;;1.00;1.00;;;;;34.82;22.36;101037.97;5032476;28;45712;-85
2022/06/29 10:47:23;;;;;;;;;0.00;0.00;;;;;34.75;21.45;101031.63;5034137;28;45387;-84
2022/06/29 10:50:23;;;;;;;;;0.00;0.00;;;;;34.69;21.59;101007.56;5032836;28;45524;-87
2022/06/29 10:52:54;;;;;;;;;0.33;0.33;;;;;34.59;21.84;100973.94;5040133;28;45571;-86
2022/06/29 10:55:20;;;;;;;;;1.67;0.33;;;;;34.83;21.00;101016.66;5032609;28;46576;-89
2022/06/29 10:57:46;;;;;;;;;2.33;2.00;;;;;34.97;21.71;101029.38;5032146;28;45466;-85
2022/06/29 11:00:16;;;;;;;;;0.00;0.00;;;;;34.98;21.16;101005.28;5033648;28;45571;-87
2022/06/29 11:02:42;;;;;;;;;0.00;0.00;;;;;35.12;21.35;101019.94;5032396;28;45377;-87
2022/06/29 11:05:09;;;;;;;;;1.00;0.00;;;;;35.05;21.66;101004.19;5032410;28;47327;-83
2022/06/29 11:13:03;;;;;;;;;0.67;0.67;;;;;35.12;21.34;101018.00;5031592;28;45476;-83
2022/06/29 11:15:41;;;;;;;;;0.33;0.00;;;;;34.84;21.22;100969.38;5031802;28;45487;-87
2022/06/29 11:18:11;;;;;;;;;0.00;0.00;;;;;35.04;21.05;100990.53;5031736;28;45556;-85
2022/06/29 11:20:41;;;;;;;;;0.00;0.00;;;;;34.84;21.07;100969.38;5032346;28;45480;-87
2022/06/29 11:23:17;;;;;;;;;0.00;0.00;;;;;34.91;21.70;100988.72;5035201;28;45392;-83
2022/06/29 11:25:48;;;;;;;;;0.00;0.00;;;;;34.93;21.43;101005.94;5027542;28;46629;-85
2022/06/29 11:28:17;;;;;;;;;0.00;0.00;;;;;34.80;20.61;100998.56;5031048;28;45609;-85
2022/06/29 11:31:20;;;;;;;;;0.00;0.00;;;;;34.70;21.38;101009.28;5031400;28;45389;-85
2022/06/29 11:33:53;;;;;;;;;0.00;0.00;;;;;34.16;20.86;100931.13;5032236;28;45487;-87
2022/06/29 11:36:25;;;;;;;;;0.00;0.00;;;;;34.24;21.26;100975.13;5027615;28;46635;-85
2022/06/29 11:39:03;;;;;;;;;0.00;0.00;;;;;34.03;21.12;100954.09;5089463;22;45510;-82
2022/06/29 11:44:23;;;;;;;;;0.00;0.00;;;;;34.17;21.43;101003.91;5034151;28;45467;-81
2022/06/29 11:46:48;;;;;;;;;1.33;0.00;;;;;34.02;21.82;100996.66;5035534;28;45534;-81
2022/06/29 11:52:02;;;;;;;;;0.00;0.00;;;;;33.69;21.57;100979.25;5038410;28;45469;-86
2022/06/29 11:54:39;;;;;;;;;0.00;0.00;;;;;33.76;21.35;101004.97;5032181;28;45435;-84
2022/06/29 11:57:10;;;;;;;;;7.00;7.00;;;;;33.50;21.26;100967.97;5042954;28;47561;-83
2022/06/29 11:59:52;;;;;;;;;0.00;0.00;;;;;33.31;21.49;100960.53;5036113;28;45561;-89
2022/06/29 12:02:18;;;;;;;;;2.67;0.00;;;;;33.06;21.54;100932.66;5045679;28;45405;-85